Current Weather

Hillsdale Muni

Hillsdale, Michigan (KJYM)

Report from: Wednesday, May 29, 2024 6:55 PM EDT
Current time: Wednesday, May 29, 2024 7:22 PM EDT

Nearby weather – Weather history – Daily summaries
Weather forecast

Temperature19.0°C (66.2°F)
Dew point2.0°C (35.6°F)
Winds 6 kts (3.1 m/s, 6.9 mph) North-Northeast (30°)
Visibility10 mi. (16.1 km)
Clouds Ceiling: Broken clouds 9,000 ft. (2,743 m)
Broken clouds 11,000 ft. (3,353 m)
Altimeter30.12 in.Hg (1020 mB)
Relative humidity32 %
Density altitude351 ft. (107 m)
Remarks Fully automated report
Automated weather observing station with precipitation discriminator
Flight conditions Visual Meteorological Conditions
Raw dataKJYM 292255Z AUTO 03006KT 10SM BKN090 BKN110 19/02 A3012 RMK AO2 T01900020
An error has occurred. This application may no longer respond until reloaded. Reload 🗙